Time;durP1;ratioP1;P1;durP2;ratioP2;P2;SDS_P1;SDS_P2;PMS_P1;PMS_P2;Temp;Humidity;BMP_temperature;BMP_pressure;BME280_temperature;BME280_humidity;BME280_pressure;Samples;Min_cycle;Max_cycle;Signal;HPM_P1;HPM_P2
2023/01/15 00:01:33;;;;;;;3.70;3.60;;;;;;;6.52;100.00;99471.16;6142222;23;20013;-68
2023/01/15 00:04:02;;;;;;;7.75;4.28;;;;;;;7.02;100.00;99569.19;6168865;23;20012;-68
2023/01/15 00:06:30;;;;;;;3.80;3.70;;;;;;;6.99;100.00;99585.00;6142394;23;20467;-67
2023/01/15 00:08:56;;;;;;;6.88;3.80;;;;;;;6.53;100.00;99533.59;6136013;23;20074;-67
2023/01/15 00:11:22;;;;;;;3.83;3.70;;;;;;;6.42;100.00;99515.13;6144663;23;20021;-67
2023/01/15 00:13:49;;;;;;;4.07;3.88;;;;;;;6.85;100.00;99603.19;6176096;23;20032;-68
2023/01/15 00:16:18;;;;;;;4.53;4.28;;;;;;;5.75;100.00;99437.03;6142481;23;20048;-67
2023/01/15 00:18:53;;;;;;;3.65;3.55;;;;;;;6.64;100.00;99595.59;6164723;23;20499;-68
2023/01/15 00:21:20;;;;;;;3.67;3.53;;;;;;;6.58;100.00;99630.66;6144941;23;20113;-68
2023/01/15 00:29:19;;;;;;;3.40;3.30;;;;;;;6.41;100.00;99619.44;6164668;23;20105;-68
2023/01/15 00:31:57;;;;;;;3.53;3.42;;;;;;;6.00;100.00;99560.75;6093283;23;20131;-68
2023/01/15 00:34:25;;;;;;;3.47;3.38;;;;;;;6.31;100.00;99632.94;6169737;23;20021;-67
2023/01/15 00:36:52;;;;;;;3.38;3.28;;;;;;;6.29;100.00;99642.59;6146201;23;20138;-68
2023/01/15 00:39:18;;;;;;;3.70;3.50;;;;;;;5.92;100.00;99579.34;6149710;23;20024;-68
2023/01/15 00:41:45;;;;;;;3.80;3.60;;;;;;;5.98;100.00;99573.00;6115146;23;20772;-68
2023/01/15 00:44:12;;;;;;;8.93;4.07;;;;;;;6.00;100.00;99573.78;6171772;23;20015;-68
2023/01/15 00:46:38;;;;;;;3.60;3.50;;;;;;;6.20;100.00;99622.25;6128219;23;20041;-69
2023/01/15 00:49:05;;;;;;;3.60;3.50;;;;;;;5.50;100.00;99517.28;6170637;23;20081;-68
2023/01/15 00:51:31;;;;;;;3.40;3.30;;;;;;;6.15;100.00;99601.66;6130677;23;20063;-68
2023/01/15 00:53:58;;;;;;;3.55;3.42;;;;;;;6.07;100.00;99616.78;6163781;23;20482;-68
2023/01/15 00:56:25;;;;;;;3.67;3.58;;;;;;;5.30;100.00;99494.84;6131814;23;20067;-68
2023/01/15 00:58:52;;;;;;;3.50;3.40;;;;;;;5.28;100.00;99478.47;6140792;23;20083;-68
2023/01/15 01:01:18;;;;;;;3.38;3.28;;;;;;;6.07;100.00;99592.53;6141908;23;20061;-68
2023/01/15 01:03:51;;;;;;;3.60;3.50;;;;;;;5.99;100.00;99577.28;6165289;23;20016;-68
2023/01/15 01:06:19;;;;;;;3.47;3.38;;;;;;;6.05;100.00;99584.78;6144706;23;20021;-68
2023/01/15 01:08:47;;;;;;;3.70;3.60;;;;;;;6.07;100.00;99593.34;6146985;23;20095;-69
2023/01/15 01:11:16;;;;;;;3.60;3.45;;;;;;;5.75;100.00;99554.16;6123183;23;20031;-68
2023/01/15 01:13:44;;;;;;;3.60;3.50;;;;;;;6.03;100.00;99598.81;6139028;23;20035;-68
2023/01/15 01:16:34;;;;;;;3.42;3.33;;;;;;;6.00;100.00;99602.41;6127970;23;20021;-68
2023/01/15 01:19:12;;;;;;;3.72;3.55;;;;;;;5.87;100.00;99568.28;6167278;23;20009;-68
2023/01/15 01:21:40;;;;;;;3.60;3.50;;;;;;;5.98;100.00;99586.88;6135933;23;20017;-68
2023/01/15 01:24:09;;;;;;;3.40;3.30;;;;;;;5.98;100.00;99596.44;6144486;23;20283;-68
2023/01/15 01:26:35;;;;;;;3.50;3.40;;;;;;;5.42;100.00;99507.25;6116244;23;20085;-68
2023/01/15 01:29:02;;;;;;;3.40;3.30;;;;;;;6.04;100.00;99640.41;6172225;23;20435;-68
2023/01/15 01:31:29;;;;;;;3.50;3.40;;;;;;;6.02;100.00;99621.41;6102585;23;20546;-67
2023/01/15 01:33:58;;;;;;;3.53;3.42;;;;;;;6.09;100.00;99620.16;6172870;23;20005;-68
2023/01/15 01:36:27;;;;;;;3.65;3.50;;;;;;;6.06;100.00;99643.78;6144368;23;20392;-69
2023/01/15 01:38:54;;;;;;;3.40;3.30;;;;;;;6.05;100.00;99639.47;6172132;23;20527;-68
2023/01/15 01:41:20;;;;;;;3.60;3.50;;;;;;;5.76;100.00;99594.06;6114259;23;20105;-68
2023/01/15 01:44:03;;;;;;;3.92;3.72;;;;;;;6.11;100.00;99635.72;6167567;23;20441;-68
2023/01/15 01:46:32;;;;;;;3.40;3.30;;;;;;;6.06;100.00;99637.72;6114390;23;20526;-68
2023/01/15 01:49:13;;;;;;;4.32;4.03;;;;;;;5.47;100.00;99559.03;6138222;23;20013;-68
2023/01/15 01:51:48;;;;;;;3.80;3.60;;;;;;;5.95;100.00;99623.50;6172651;23;20025;-68
2023/01/15 01:54:18;;;;;;;4.10;3.90;;;;;;;5.91;100.00;99624.53;6144355;23;20116;-68
2023/01/15 01:56:48;;;;;;;3.35;3.25;;;;;;;5.73;100.00;99594.19;6146088;23;20118;-68
2023/01/15 01:59:17;;;;;;;3.30;3.20;;;;;;;5.87;100.00;99612.56;6119118;23;20407;-68
2023/01/15 02:01:43;;;;;;;3.72;3.63;;;;;;;5.85;100.00;99627.41;6168888;23;20016;-68
2023/01/15 02:04:10;;;;;;;3.40;3.30;;;;;;;5.82;100.00;99640.59;6093261;23;20026;-68
2023/01/15 02:06:39;;;;;;;3.40;3.30;;;;;;;5.81;100.00;99620.69;6177361;23;20023;-68
2023/01/15 02:09:06;;;;;;;3.38;3.28;;;;;;;5.43;100.00;99539.31;6139512;23;20414;-68
2023/01/15 02:11:33;;;;;;;3.55;3.45;;;;;;;5.55;100.00;99567.31;6146971;23;20027;-67
2023/01/15 02:14:17;;;;;;;16.23;3.35;;;;;;;5.78;100.00;99611.28;6145133;23;20046;-66
2023/01/15 02:16:46;;;;;;;3.80;3.50;;;;;;;5.83;100.00;99623.22;6141317;23;20389;-66
2023/01/15 02:19:31;;;;;;;4.00;3.80;;;;;;;5.78;100.00;99613.03;6143633;23;20040;-68
2023/01/15 02:22:13;;;;;;;3.30;3.20;;;;;;;5.78;100.00;99607.84;6172525;23;20711;-68
2023/01/15 02:25:12;;;;;;;3.60;3.47;;;;;;;5.81;100.00;99607.66;6150086;23;20103;-68
2023/01/15 02:27:45;;;;;;;3.50;3.40;;;;;;;5.79;100.00;99605.16;6142840;23;20021;-68
2023/01/15 02:30:54;;;;;;;9.75;9.13;;;;;;;4.43;100.00;99351.81;6116212;23;20231;-68
2023/01/15 02:33:30;;;;;;;3.33;3.22;;;;;;;5.31;100.00;99488.72;6171449;23;20025;-67
2023/01/15 02:35:59;;;;;;;3.70;3.50;;;;;;;5.88;100.00;99569.16;6117833;23;20096;-67
2023/01/15 02:38:31;;;;;;;3.40;3.30;;;;;;;5.88;100.00;99574.38;6167308;23;20240;-67
2023/01/15 02:41:01;;;;;;;3.58;3.47;;;;;;;5.67;100.00;99552.84;6141642;23;20425;-67
2023/01/15 02:43:33;;;;;;;3.60;3.50;;;;;;;5.80;100.00;99559.13;6142380;23;20025;-67
2023/01/15 02:46:02;;;;;;;3.42;3.33;;;;;;;5.62;100.00;99549.66;6110081;23;20069;-67
2023/01/15 02:48:33;;;;;;;3.40;3.30;;;;;;;5.87;100.00;99589.13;6166286;23;20117;-67
2023/01/15 02:51:13;;;;;;;3.85;3.65;;;;;;;5.46;100.00;99532.19;6149768;23;20033;-67
2023/01/15 02:53:43;;;;;;;3.90;3.60;;;;;;;5.55;100.00;99539.56;6174945;23;20244;-66
2023/01/15 02:56:17;;;;;;;3.50;3.40;;;;;;;5.48;100.00;99521.72;6153105;23;20032;-67
2023/01/15 02:58:46;;;;;;;3.60;3.50;;;;;;;5.17;100.00;99485.06;6141273;23;20013;-68
2023/01/15 03:01:22;;;;;;;4.68;3.45;;;;;;;5.15;100.00;99476.50;6145753;23;20028;-67
2023/01/15 03:03:58;;;;;;;3.50;3.40;;;;;;;5.60;100.00;99553.16;6173702;23;20025;-67
2023/01/15 03:06:38;;;;;;;3.63;3.53;;;;;;;5.79;100.00;99591.28;6122093;23;20462;-67
2023/01/15 03:09:06;;;;;;;3.53;3.42;;;;;;;4.32;100.00;99335.00;6179106;23;20076;-67
2023/01/15 03:11:38;;;;;;;3.58;3.47;;;;;;;5.77;100.00;99593.97;6144330;23;20017;-67
2023/01/15 03:14:13;;;;;;;3.65;3.50;;;;;;;5.83;100.00;99577.19;6142935;23;20021;-67
2023/01/15 03:16:52;;;;;;;3.70;3.60;;;;;;;5.81;100.00;99568.59;6143245;23;20033;-68
2023/01/15 03:19:26;;;;;;;18.35;3.58;;;;;;;5.90;100.00;99556.91;6141506;23;20099;-67
2023/01/15 03:22:01;;;;;;;3.60;3.40;;;;;;;5.92;100.00;99548.09;6174135;23;20030;-68
2023/01/15 03:24:43;;;;;;;3.30;3.20;;;;;;;5.72;100.00;99533.47;6143800;23;20769;-67
2023/01/15 03:27:10;;;;;;;4.82;4.63;;;;;;;5.20;100.00;99447.66;6144306;23;20113;-68
2023/01/15 03:29:43;;;;;;;3.90;3.70;;;;;;;5.79;100.00;99545.28;6167687;23;20032;-68
2023/01/15 03:32:10;;;;;;;3.30;3.20;;;;;;;5.80;100.00;99557.38;6142866;23;20033;-68
2023/01/15 03:34:45;;;;;;;4.00;3.80;;;;;;;5.82;100.00;99539.06;6146034;23;20055;-68
2023/01/15 03:37:12;;;;;;;3.40;3.30;;;;;;;5.42;100.00;99478.63;6121374;23;20025;-67
2023/01/15 03:39:40;;;;;;;4.00;3.80;;;;;;;5.58;100.00;99523.75;6166566;23;20009;-68
2023/01/15 03:42:39;;;;;;;4.28;3.88;;;;;;;5.80;100.00;99535.69;6147829;23;20092;-68
2023/01/15 03:45:16;;;;;;;3.53;3.35;;;;;;;5.79;100.00;99529.66;6143526;23;20021;-67
2023/01/15 03:47:57;;;;;;;4.05;3.85;;;;;;;5.84;100.00;99555.44;6122474;23;20100;-67
2023/01/15 03:50:32;;;;;;;3.50;3.40;;;;;;;5.80;100.00;99546.13;6143131;23;20029;-67
2023/01/15 03:53:20;;;;;;;3.40;3.30;;;;;;;5.41;100.00;99482.13;6173470;23;20243;-67
2023/01/15 03:55:53;;;;;;;3.80;3.70;;;;;;;5.82;100.00;99544.28;6114980;23;20044;-67
2023/01/15 03:58:24;;;;;;;;;;;;;;;5.80;100.00;99546.13;6180405;23;20020;-67
2023/01/15 04:00:54;;;;;;;3.58;3.47;;;;;;;5.21;100.00;99454.53;6138230;23;19926;-67
2023/01/15 04:03:23;;;;;;;3.30;3.20;;;;;;;5.17;100.00;99461.66;6150056;23;20029;-68
2023/01/15 04:05:50;;;;;;;3.60;3.50;;;;;;;5.76;100.00;99557.59;6144770;23;20068;-67
2023/01/15 04:08:18;;;;;;;3.30;3.20;;;;;;;5.52;100.00;99525.84;6149597;23;20147;-67
2023/01/15 04:10:59;;;;;;;3.65;3.55;;;;;;;5.54;100.00;99535.25;6120567;23;20032;-67
2023/01/15 04:13:26;;;;;;;6.65;3.50;;;;;;;5.69;100.00;99554.47;6145408;23;20074;-67
2023/01/15 04:15:56;;;;;;;4.18;3.97;;;;;;;5.67;100.00;99547.66;6130250;23;20096;-67
2023/01/15 04:18:23;;;;;;;4.38;4.13;;;;;;;5.69;100.00;99546.66;6139919;23;20021;-67
2023/01/15 04:20:50;;;;;;;3.90;3.70;;;;;;;5.71;100.00;99560.44;6137242;23;20022;-67
2023/01/15 04:23:16;;;;;;;3.90;3.70;;;;;;;5.70;100.00;99539.69;6164237;23;20021;-67
2023/01/15 04:25:43;;;;;;;4.43;4.22;;;;;;;5.09;100.00;99456.00;6138920;23;20024;-67
2023/01/15 04:28:09;;;;;;;4.88;4.68;;;;;;;5.31;100.00;99497.38;6140757;23;20024;-67
2023/01/15 04:30:36;;;;;;;3.65;3.53;;;;;;;5.67;100.00;99545.88;6161174;23;20526;-68
2023/01/15 04:33:04;;;;;;;3.70;3.50;;;;;;;5.55;100.00;99544.75;6136710;23;20514;-67
2023/01/15 04:35:30;;;;;;;3.50;3.40;;;;;;;5.63;100.00;99553.94;6116738;23;20024;-67
2023/01/15 04:37:58;;;;;;;3.50;3.40;;;;;;;5.62;100.00;99557.47;6171430;23;20016;-67
2023/01/15 04:45:57;;;;;;;3.50;3.40;;;;;;;5.78;100.00;99556.59;6167849;23;20084;-67
2023/01/15 04:48:24;;;;;;;3.88;3.67;;;;;;;5.39;100.00;99478.78;6137902;23;20035;-67
2023/01/15 04:50:51;;;;;;;5.93;3.65;;;;;;;5.34;100.00;99463.41;6135755;23;20092;-67
2023/01/15 04:53:17;;;;;;;3.53;3.42;;;;;;;5.70;100.00;99534.50;6144716;23;20082;-67
2023/01/15 04:55:44;;;;;;;4.05;3.85;;;;;;;5.72;100.00;99543.91;6104892;23;20211;-67
2023/01/15 04:58:10;;;;;;;3.80;3.60;;;;;;;4.98;100.00;99421.88;6157366;23;20631;-66
2023/01/15 05:00:37;;;;;;;7.90;3.50;;;;;;;5.26;100.00;99490.72;6124226;23;20085;-67
2023/01/15 05:03:03;;;;;;;3.35;3.25;;;;;;;5.18;100.00;99470.28;6143225;23;20303;-67
2023/01/15 05:05:31;;;;;;;3.60;3.50;;;;;;;5.29;100.00;99480.16;6136352;23;20387;-67
2023/01/15 05:07:57;;;;;;;3.83;3.65;;;;;;;5.76;100.00;99552.41;6145648;23;20023;-67
2023/01/15 05:10:24;;;;;;;3.50;3.40;;;;;;;5.62;100.00;99537.47;6117322;23;20087;-66
2023/01/15 05:12:50;;;;;;;5.05;3.70;;;;;;;5.59;100.00;99530.66;6165222;23;20032;-66
2023/01/15 05:15:17;;;;;;;3.42;3.33;;;;;;;5.59;100.00;99543.69;6131678;23;20467;-67
2023/01/15 05:17:43;;;;;;;4.20;4.00;;;;;;;5.35;100.00;99504.13;6159018;23;20510;-67
2023/01/15 05:20:14;;;;;;;4.15;3.85;;;;;;;5.69;100.00;99558.81;6138826;23;20506;-67
2023/01/15 05:22:40;;;;;;;3.58;3.47;;;;;;;5.67;100.00;99561.50;6140110;23;20021;-67
2023/01/15 05:25:07;;;;;;;3.40;3.30;;;;;;;5.35;100.00;99514.53;6116393;23;20025;-66
2023/01/15 05:27:33;;;;;;;3.42;3.33;;;;;;;5.72;100.00;99563.88;6172156;23;20043;-67
2023/01/15 05:30:00;;;;;;;3.38;3.28;;;;;;;5.76;100.00;99560.22;6089706;23;20519;-67
2023/01/15 05:32:28;;;;;;;7.38;3.50;;;;;;;5.70;100.00;99558.75;6165686;23;20036;-67
2023/01/15 05:34:55;;;;;;;3.50;3.40;;;;;;;4.86;100.00;99431.13;6108897;23;20272;-67
2023/01/15 05:37:21;;;;;;;3.50;3.30;;;;;;;5.40;100.00;99522.94;6163946;23;20033;-67
2023/01/15 05:39:48;;;;;;;3.72;3.63;;;;;;;4.12;100.00;99303.97;6134663;23;20358;-67
2023/01/15 05:42:14;;;;;;;3.60;3.40;;;;;;;5.54;100.00;99535.25;6170988;23;20103;-67
2023/01/15 05:44:41;;;;;;;3.50;3.40;;;;;;;5.70;100.00;99555.31;6134976;23;20041;-67
2023/01/15 05:47:10;;;;;;;3.25;3.15;;;;;;;5.21;100.00;99475.31;6148291;23;20020;-67
2023/01/15 05:49:37;;;;;;;3.75;3.55;;;;;;;5.84;100.00;99576.28;6176342;23;20025;-67
2023/01/15 05:52:03;;;;;;;3.47;3.33;;;;;;;5.62;100.00;99536.63;6143370;23;20025;-68
2023/01/15 05:54:32;;;;;;;3.45;3.35;;;;;;;5.78;100.00;99568.78;6168021;23;20028;-68
2023/01/15 05:57:00;;;;;;;3.50;3.40;;;;;;;5.75;100.00;99564.59;6128406;23;20045;-68
2023/01/15 05:59:28;;;;;;;3.10;3.00;;;;;;;5.50;100.00;99519.88;6174237;23;20059;-68
2023/01/15 06:01:55;;;;;;;3.92;3.72;;;;;;;5.71;100.00;99575.19;6143292;23;20073;-68
2023/01/15 06:04:24;;;;;;;3.60;3.50;;;;;;;5.39;100.00;99515.19;6142127;23;20093;-68
2023/01/15 06:06:52;;;;;;;12.05;4.28;;;;;;;5.68;100.00;99564.97;6143314;23;20031;-68
2023/01/15 06:09:21;;;;;;;3.30;3.20;;;;;;;5.75;100.00;99561.13;6143183;23;20017;-68
2023/01/15 06:11:48;;;;;;;3.97;3.78;;;;;;;5.64;100.00;99550.41;6142220;23;20025;-68
2023/01/15 06:14:15;;;;;;;3.90;3.72;;;;;;;5.81;100.00;99584.22;6146389;23;20032;-68
2023/01/15 06:16:41;;;;;;;3.50;3.40;;;;;;;5.80;100.00;99586.00;6176848;23;20088;-68
2023/01/15 06:19:10;;;;;;;3.75;3.38;;;;;;;5.68;100.00;99576.22;6144955;23;20088;-68
2023/01/15 06:21:36;;;;;;;3.60;3.30;;;;;;;5.24;100.00;99542.81;6134671;23;20125;-68
2023/01/15 06:24:03;;;;;;;4.03;3.72;;;;;;;5.68;100.00;99594.44;6141564;23;20024;-67
2023/01/15 06:26:30;;;;;;;3.30;3.20;;;;;;;5.19;100.00;99524.84;6166663;23;20058;-66
2023/01/15 06:28:56;;;;;;;3.40;3.30;;;;;;;5.34;100.00;99540.59;6143657;23;20095;-67
2023/01/15 06:31:25;;;;;;;3.85;3.65;;;;;;;5.12;100.00;99522.59;6139883;23;20032;-67
2023/01/15 06:33:52;;;;;;;7.90;4.28;;;;;;;5.37;100.00;99553.44;6168867;23;20091;-67
2023/01/15 06:36:21;;;;;;;3.60;3.42;;;;;;;5.56;100.00;99584.63;6143807;23;20085;-67
2023/01/15 06:38:48;;;;;;;3.50;3.40;;;;;;;5.64;100.00;99599.88;6119945;23;20111;-67
2023/01/15 06:49:36;;;;;;;3.33;3.22;;;;;;;5.60;100.00;99602.63;6171230;23;20024;-67
2023/01/15 06:52:02;;;;;;;4.07;3.85;;;;;;;5.56;100.00;99606.28;6140056;23;20406;-66
2023/01/15 06:54:30;;;;;;;3.38;3.28;;;;;;;5.37;100.00;99574.25;6178521;23;20143;-67
2023/01/15 06:56:56;;;;;;;3.67;3.47;;;;;;;5.43;100.00;99579.16;6146989;23;20530;-67
2023/01/15 06:59:22;;;;;;;3.40;3.30;;;;;;;5.62;100.00;99599.94;6167825;23;20069;-67
2023/01/15 07:01:49;;;;;;;3.75;3.63;;;;;;;5.16;100.00;99524.97;6143382;23;20368;-67
2023/01/15 07:04:15;;;;;;;3.58;3.38;;;;;;;5.12;100.00;99530.41;6141094;23;20042;-66
2023/01/15 07:06:42;;;;;;;3.90;3.70;;;;;;;5.60;100.00;99614.78;6151167;23;20452;-67
2023/01/15 07:09:09;;;;;;;3.90;3.65;;;;;;;5.60;100.00;99609.59;6137327;23;20060;-67
2023/01/15 07:11:48;;;;;;;3.35;3.25;;;;;;;5.37;100.00;99576.88;6163169;23;20020;-67
2023/01/15 07:14:19;;;;;;;3.42;3.33;;;;;;;5.55;100.00;99607.22;6143491;23;20028;-67
2023/01/15 07:16:45;;;;;;;3.67;3.47;;;;;;;5.56;100.00;99614.09;6166765;23;20017;-67
2023/01/15 07:19:12;;;;;;;4.03;3.72;;;;;;;5.42;100.00;99585.31;6141729;23;20041;-67
2023/01/15 07:21:39;;;;;;;4.13;3.92;;;;;;;5.42;100.00;99593.09;6167932;23;20098;-67
2023/01/15 07:24:06;;;;;;;3.72;3.38;;;;;;;5.56;100.00;99616.69;6138810;23;20029;-68
2023/01/15 07:26:33;;;;;;;5.00;3.47;;;;;;;5.52;100.00;99617.75;6137558;23;20244;-66
2023/01/15 07:28:59;;;;;;;4.22;4.03;;;;;;;5.39;100.00;99604.50;6166670;23;20020;-67
2023/01/15 07:31:26;;;;;;;3.95;3.65;;;;;;;5.50;100.00;99622.19;6109650;23;20120;-67
2023/01/15 07:33:55;;;;;;;3.40;3.30;;;;;;;5.57;100.00;99627.94;6143189;23;20032;-67
2023/01/15 07:36:23;;;;;;;4.18;3.97;;;;;;;4.68;100.00;99503.00;6092388;23;20318;-67
2023/01/15 07:38:49;;;;;;;4.03;3.83;;;;;;;5.08;100.00;99563.53;6169515;23;20073;-67
2023/01/15 07:49:47;;;;;;;4.00;3.80;;;;;;;5.15;100.00;99606.53;6142268;23;20081;-72
2023/01/15 07:52:19;;;;;;;4.93;4.55;;;;;;;5.16;100.00;99607.38;6117764;23;20014;-72
2023/01/15 07:54:47;;;;;;;4.97;4.57;;;;;;;3.51;100.00;99329.25;6130152;23;20033;-72
2023/01/15 07:57:17;;;;;;;8.43;4.13;;;;;;;5.52;100.00;99651.59;6171856;23;20174;-71
2023/01/15 07:59:44;;;;;;;3.50;3.40;;;;;;;5.11;100.00;99604.13;6121351;23;20094;-72
2023/01/15 08:02:11;;;;;;;4.85;3.75;;;;;;;5.24;100.00;99636.47;6166081;23;20028;-71
2023/01/15 08:04:39;;;;;;;3.40;3.30;;;;;;;5.60;100.00;99672.03;6113907;23;20346;-72
2023/01/15 08:07:05;;;;;;;4.13;3.92;;;;;;;5.62;100.00;99680.63;6140292;23;20025;-72
2023/01/15 08:09:32;;;;;;;3.65;3.55;;;;;;;5.64;100.00;99684.00;6134889;23;21068;-72
2023/01/15 08:17:40;;;;;;;3.40;3.30;;;;;;;5.63;100.00;99720.50;6107771;23;20031;-72
2023/01/15 08:20:10;;;;;;;3.80;3.70;;;;;;;5.41;100.00;99672.06;6156100;23;20024;-73
2023/01/15 08:22:37;;;;;;;3.60;3.45;;;;;;;5.56;100.00;99726.00;6137754;23;20875;-73
2023/01/15 08:25:04;;;;;;;3.50;3.40;;;;;;;5.43;99.00;99711.03;6138537;23;20016;-73
2023/01/15 08:27:31;;;;;;;3.10;3.00;;;;;;;5.53;97.82;99723.56;6169342;23;20095;-73
2023/01/15 08:29:58;;;;;;;3.63;3.42;;;;;;;5.32;95.74;99701.13;6124750;23;20009;-73
2023/01/15 08:32:25;;;;;;;3.33;3.22;;;;;;;5.49;95.08;99710.75;6168367;23;20032;-72
2023/01/15 08:34:51;;;;;;;3.75;3.45;;;;;;;4.58;94.44;99564.97;6113143;23;20225;-73
2023/01/15 08:37:18;;;;;;;3.15;3.05;;;;;;;5.39;94.22;99707.72;6163593;23;20112;-72
2023/01/15 08:39:44;;;;;;;4.22;3.75;;;;;;;5.46;94.81;99710.91;6103436;23;20013;-73
2023/01/15 08:42:11;;;;;;;3.20;3.10;;;;;;;4.87;94.23;99643.38;6144104;23;20622;-73
2023/01/15 08:44:38;;;;;;;3.30;3.20;;;;;;;4.16;94.53;99521.84;6122151;23;20223;-72
2023/01/15 08:47:04;;;;;;;4.35;3.95;;;;;;;4.13;95.65;99514.19;6162746;23;20172;-73
2023/01/15 08:49:31;;;;;;;3.17;3.08;;;;;;;5.17;95.70;99707.88;6138301;23;20040;-73
2023/01/15 08:51:57;;;;;;;3.80;3.63;;;;;;;5.08;97.73;99693.53;6135301;23;20090;-72
2023/01/15 08:54:24;;;;;;;3.42;3.33;;;;;;;4.93;98.89;99681.22;6137195;23;20610;-72
2023/01/15 08:56:51;;;;;;;4.00;3.80;;;;;;;4.47;98.38;99614.00;6138296;23;20028;-72
2023/01/15 08:59:18;;;;;;;3.60;3.40;;;;;;;4.54;100.00;99630.13;6136319;23;20024;-72
2023/01/15 09:01:44;;;;;;;3.90;3.70;;;;;;;4.79;100.00;99659.31;6139997;23;20012;-72
2023/01/15 09:04:15;;;;;;;3.38;3.28;;;;;;;4.99;100.00;99712.16;6138469;23;20051;-73
2023/01/15 09:06:42;;;;;;;3.40;3.30;;;;;;;4.54;100.00;99622.34;6171070;23;20017;-73
2023/01/15 09:09:09;;;;;;;3.40;3.30;;;;;;;4.88;100.00;99696.22;6106551;23;20335;-72
2023/01/15 09:11:39;;;;;;;3.88;3.58;;;;;;;4.71;100.00;99663.16;6176903;23;20049;-70
2023/01/15 09:14:10;;;;;;;3.30;3.20;;;;;;;4.91;100.00;99701.25;6139216;23;20005;-71
2023/01/15 09:16:57;;;;;;;3.60;3.50;;;;;;;4.46;100.00;99653.00;6146470;23;20040;-73
2023/01/15 09:19:23;;;;;;;3.25;3.15;;;;;;;4.89;100.00;99724.75;6135941;23;20022;-72
2023/01/15 09:21:50;;;;;;;3.42;3.33;;;;;;;3.58;100.00;99480.28;6139749;23;20025;-71
2023/01/15 09:24:16;;;;;;;3.40;3.30;;;;;;;4.86;100.00;99698.88;6135199;23;20330;-72
2023/01/15 09:26:43;;;;;;;3.45;3.25;;;;;;;4.83;100.00;99690.34;6164037;23;20019;-73
2023/01/15 09:29:09;;;;;;;3.40;3.30;;;;;;;4.82;100.00;99686.91;6114413;23;20029;-73
2023/01/15 09:31:36;;;;;;;3.45;3.33;;;;;;;4.70;100.00;99657.13;6165520;23;20040;-74
2023/01/15 09:34:05;;;;;;;3.30;3.20;;;;;;;4.29;100.00;99588.81;6114700;23;20282;-73
2023/01/15 09:36:33;;;;;;;3.40;3.30;;;;;;;5.26;100.00;99725.66;6133072;23;20027;-73
2023/01/15 09:39:01;;;;;;;3.40;3.30;;;;;;;5.25;100.00;99710.13;6172274;23;20090;-74
2023/01/15 09:42:07;;;;;;;3.30;3.20;;;;;;;4.99;99.90;99662.75;6141529;23;20505;-74
2023/01/15 09:45:11;;;;;;;3.40;3.20;;;;;;;5.66;98.99;99743.78;6163462;23;20025;-73
2023/01/15 09:47:50;;;;;;;3.75;3.50;;;;;;;5.65;96.65;99740.31;6088370;23;20069;-73
2023/01/15 09:50:51;;;;;;;4.03;3.78;;;;;;;5.67;95.89;99745.47;6167538;23;20280;-73
2023/01/15 09:53:36;;;;;;;4.57;4.28;;;;;;;5.76;93.98;99727.66;6139944;23;20026;-73
2023/01/15 09:56:10;;;;;;;3.67;3.38;;;;;;;5.75;92.17;99714.72;6134453;23;20169;-72
2023/01/15 09:58:39;;;;;;;3.85;3.65;;;;;;;5.39;91.39;99650.47;6166486;23;20367;-73
2023/01/15 10:01:16;;;;;;;3.63;3.45;;;;;;;5.85;90.78;99699.50;6115686;23;20531;-71
2023/01/15 10:03:50;;;;;;;3.72;3.55;;;;;;;5.37;89.74;99584.66;6134408;23;20029;-74
2023/01/15 10:06:27;;;;;;;3.58;3.40;;;;;;;6.26;88.74;99694.03;6166808;23;20029;-72
2023/01/15 10:09:20;;;;;;;4.53;4.30;;;;;;;6.35;87.22;99697.03;6114406;23;20026;-72
2023/01/15 10:14:52;;;;;;;8.20;5.38;;;;;;;6.47;84.79;99676.44;6145118;23;20033;-73
2023/01/15 10:17:28;;;;;;;5.20;3.90;;;;;;;5.97;83.71;99595.63;6124054;23;20049;-72
2023/01/15 10:19:57;;;;;;;4.97;3.78;;;;;;;6.58;82.17;99674.13;6168852;23;20193;-74
2023/01/15 10:22:30;;;;;;;3.70;3.50;;;;;;;6.15;82.26;99598.16;6127027;23;20021;-72
2023/01/15 10:24:57;;;;;;;3.88;3.67;;;;;;;6.75;81.73;99681.06;6142684;23;20016;-73
2023/01/15 10:27:28;;;;;;;5.80;3.72;;;;;;;6.87;79.71;99667.38;6157451;23;20028;-72
2023/01/15 10:30:16;;;;;;;3.80;3.50;;;;;;;6.85;78.38;99639.69;6139302;23;20070;-73
2023/01/15 10:32:47;;;;;;;3.75;3.55;;;;;;;6.31;78.64;99554.75;6157486;23;20510;-73
2023/01/15 10:35:39;;;;;;;6.22;3.70;;;;;;;6.63;78.38;99612.16;6142524;23;20459;-74
2023/01/15 10:38:30;;;;;;;3.70;3.60;;;;;;;6.71;78.43;99640.44;6165778;23;20508;-73
2023/01/15 10:41:15;;;;;;;3.50;3.40;;;;;;;6.90;78.03;99658.56;6114996;23;20041;-71
2023/01/15 10:44:02;;;;;;;3.83;3.63;;;;;;;6.98;78.43;99651.16;6172066;23;20020;-71
2023/01/15 10:46:36;;;;;;;3.70;3.50;;;;;;;7.13;78.31;99665.13;6143611;23;20435;-71
2023/01/15 10:49:12;;;;;;;4.10;3.80;;;;;;;6.96;77.09;99609.50;6111932;23;20017;-73
2023/01/15 10:51:46;;;;;;;4.95;3.97;;;;;;;6.98;78.06;99638.13;6168194;23;20021;-72
2023/01/15 10:54:25;;;;;;;4.57;4.28;;;;;;;7.14;78.21;99638.97;6117370;23;20076;-72
2023/01/15 10:57:31;;;;;;;16.02;4.00;;;;;;;7.32;77.77;99631.03;6144812;23;20030;-73
2023/01/15 10:59:59;;;;;;;4.07;3.88;;;;;;;7.23;76.00;99605.44;6139049;23;20529;-73
2023/01/15 11:02:43;;;;;;;4.05;3.85;;;;;;;7.24;75.46;99588.88;6152600;23;20026;-73
2023/01/15 11:05:19;;;;;;;3.92;3.72;;;;;;;6.21;74.36;99388.63;6150601;23;20051;-73
2023/01/15 11:07:48;;;;;;;4.53;4.22;;;;;;;7.43;73.80;99584.28;6166209;23;20036;-73
2023/01/15 11:10:34;;;;;;;4.63;4.15;;;;;;;7.67;73.58;99596.88;6112076;23;20080;-73
2023/01/15 11:21:51;;;;;;;3.92;3.72;;;;;;;7.38;74.47;99581.94;6171981;23;20044;-73
2023/01/15 11:24:18;;;;;;;4.47;3.95;;;;;;;7.68;74.52;99599.38;6132848;23;20076;-73
2023/01/15 11:26:50;;;;;;;4.07;3.88;;;;;;;7.39;73.09;99539.25;6174311;23;20371;-72
2023/01/15 11:29:30;;;;;;;3.85;3.55;;;;;;;7.58;72.33;99572.13;6116396;23;20495;-71
2023/01/15 11:31:57;;;;;;;3.83;3.63;;;;;;;6.74;71.98;99424.69;6131807;23;20051;-72
2023/01/15 11:34:23;;;;;;;3.75;3.63;;;;;;;7.47;72.91;99544.03;6136294;23;20029;-72
2023/01/15 11:37:04;;;;;;;5.25;4.13;;;;;;;7.47;73.25;99566.69;6146561;23;20013;-71
2023/01/15 11:39:34;;;;;;;3.85;3.65;;;;;;;7.35;73.32;99552.56;6172686;23;20426;-73
2023/01/15 11:50:54;;;;;;;3.70;3.50;;;;;;;6.36;76.39;99466.78;6141864;23;20001;-72
2023/01/15 11:53:28;;;;;;;3.40;3.30;;;;;;;7.22;76.40;99568.09;6173917;23;20243;-72
2023/01/15 11:55:59;;;;;;;4.13;3.80;;;;;;;7.30;76.36;99570.25;6121919;23;20025;-72
2023/01/15 11:58:48;;;;;;;4.53;4.32;;;;;;;7.41;75.18;99573.09;6171274;23;20198;-73
2023/01/15 12:01:30;;;;;;;4.25;4.05;;;;;;;7.63;74.82;99567.47;6143634;23;20052;-71
2023/01/15 12:04:12;;;;;;;;;;;;;;;;;;;;;
2023/01/15 12:06:40;;;;;;;;;;;;;;;7.41;73.67;99501.78;6171912;23;20025;-72
2023/01/15 12:09:30;;;;;;;3.40;3.30;;;;;;;7.52;74.48;99523.72;6141099;23;20547;-72
2023/01/15 12:12:29;;;;;;;4.18;3.97;;;;;;;7.65;73.28;99515.16;6169897;23;20245;-72
2023/01/15 12:15:10;;;;;;;4.20;4.00;;;;;;;7.72;72.57;99506.03;6141348;23;20034;-73
2023/01/15 12:17:56;;;;;;;3.80;3.60;;;;;;;7.78;71.25;99495.22;6168944;23;20036;-73
2023/01/15 12:20:28;;;;;;;9.05;3.90;;;;;;;7.59;71.16;99451.91;6137885;23;20101;-73
2023/01/15 12:23:32;;;;;;;3.90;3.70;;;;;;;7.42;72.13;99480.81;6168153;23;20365;-71
2023/01/15 12:26:15;;;;;;;4.65;4.28;;;;;;;7.31;72.23;99496.25;6071041;23;20477;-72
2023/01/15 12:28:50;;;;;;;;;;;;;;;7.38;73.85;99527.13;6136975;23;20031;-72
2023/01/15 12:31:43;;;;;;;7.88;5.13;;;;;;;6.94;73.53;99436.59;6128383;23;20269;-72
2023/01/15 12:34:12;;;;;;;3.75;3.55;;;;;;;7.53;73.09;99496.66;6127071;23;20011;-72
2023/01/15 12:36:42;;;;;;;4.10;3.90;;;;;;;7.01;73.95;99410.16;6150562;23;20103;-72
2023/01/15 12:39:18;;;;;;;4.30;4.00;;;;;;;7.83;72.93;99502.78;6142732;23;20070;-72
2023/01/15 12:45:13;;;;;;;4.93;4.45;;;;;;;7.96;70.79;99473.22;6162559;23;20024;-72
2023/01/15 12:48:04;;;;;;;4.00;3.80;;;;;;;8.06;70.16;99470.88;6128921;23;20070;-72
2023/01/15 12:50:49;;;;;;;4.50;4.20;;;;;;;7.73;70.93;99435.41;6119783;23;20031;-73
2023/01/15 12:53:43;;;;;;;7.07;4.25;;;;;;;7.70;70.16;99393.00;6146963;23;20028;-72
2023/01/15 12:56:26;;;;;;;3.85;3.65;;;;;;;8.17;70.62;99480.66;6160910;23;20012;-72